Aviation Digital Data Service (ADDS)

Output produced by METARs form (0331 UTC 20 April 2014)
found at http://www.aviationweather.gov/adds/metars/
 
KATL 200158Z 2002/2106 05015G25KT P6SM -DZ VCSH SCT015 OVC035 
     FM200700 06015G25KT P6SM OVC015 
     FM201100 05012G22KT P6SM BKN045 
     FM202000 07012KT P6SM SCT060 
     FM210000 08008KT P6SM SCT250